Time;durP1;ratioP1;P1;durP2;ratioP2;P2;SDS_P1;SDS_P2;PMS_P1;PMS_P2;Temp;Humidity;BMP_temperature;BMP_pressure;BME280_temperature;BME280_humidity;BME280_pressure;Samples;Min_cycle;Max_cycle;Signal;HPM_P1;HPM_P2
2021/12/13 00:01:50;;;;;;;0.20;0.17;;;;;;;7.06;100.00;101334.78;5031848;28;20502;-50
2021/12/13 00:04:21;;;;;;;0.20;0.13;;;;;;;7.01;100.00;101341.84;5039806;28;20459;-50
2021/12/13 00:06:54;;;;;;;0.20;0.20;;;;;;;6.89;100.00;101336.50;5031983;28;20874;-50
2021/12/13 00:09:24;;;;;;;0.20;0.10;;;;;;;6.79;100.00;101343.50;5031399;28;21005;-50
2021/12/13 00:11:57;;;;;;;0.20;0.20;;;;;;;6.82;100.00;101336.47;5036460;28;20535;-50
2021/12/13 00:14:33;;;;;;;0.30;0.20;;;;;;;6.69;100.00;101329.38;5039807;28;20502;-50
2021/12/13 00:17:10;;;;;;;0.20;0.10;;;;;;;6.83;100.00;101330.31;5035804;28;20421;-50
2021/12/13 00:19:44;;;;;;;0.30;0.20;;;;;;;6.77;100.00;101332.06;5036225;28;20478;-50
2021/12/13 00:22:24;;;;;;;0.20;0.20;;;;;;;6.61;100.00;101331.13;5042904;28;20548;-50
2021/12/13 00:24:52;;;;;;;1.53;0.70;;;;;;;6.76;100.00;101328.53;5031617;28;20830;-50
2021/12/13 00:27:22;;;;;;;0.20;0.20;;;;;;;6.82;100.00;101331.19;5040136;28;20455;-50
2021/12/13 00:30:06;;;;;;;0.20;0.10;;;;;;;6.89;100.00;101332.09;5041553;28;20525;-50
2021/12/13 00:32:58;;;;;;;0.20;0.20;;;;;;;7.00;100.00;101327.75;5028901;28;20507;-50
2021/12/13 00:35:32;;;;;;;0.20;0.20;;;;;;;6.98;100.00;101329.47;5030953;28;20483;-50
2021/12/13 00:38:04;;;;;;;0.20;0.20;;;;;;;7.06;100.00;101332.16;5039763;28;20438;-50
2021/12/13 00:40:34;;;;;;;0.20;0.20;;;;;;;7.05;100.00;101333.03;5039898;28;20451;-50
2021/12/13 00:43:14;;;;;;;0.30;0.30;;;;;;;7.10;100.00;101324.22;5032705;28;20483;-50
2021/12/13 00:45:51;;;;;;;0.20;0.20;;;;;;;7.10;100.00;101321.56;5037548;28;20455;-50
2021/12/13 00:48:20;;;;;;;0.20;0.20;;;;;;;7.12;100.00;101329.50;5033920;28;20502;-50
2021/12/13 00:50:59;;;;;;;0.30;0.20;;;;;;;7.11;100.00;101325.97;5042339;28;20451;-50
2021/12/13 00:53:27;;;;;;;0.20;0.20;;;;;;;7.10;100.00;101332.16;5031533;28;20815;-50
2021/12/13 00:55:54;;;;;;;0.20;0.17;;;;;;;6.98;100.00;101331.22;5040295;28;20482;-50
2021/12/13 00:58:23;;;;;;;0.40;0.40;;;;;;;7.01;100.00;101328.63;5038826;28;20975;-50
2021/12/13 01:00:58;;;;;;;0.20;0.20;;;;;;;7.00;100.00;101332.16;5037371;28;20862;-50
2021/12/13 01:03:33;;;;;;;0.20;0.20;;;;;;;6.95;100.00;101334.75;5039158;28;21016;-49
2021/12/13 01:06:18;;;;;;;0.20;0.20;;;;;;;6.96;100.00;101339.16;5037372;28;20482;-49
2021/12/13 01:08:51;;;;;;;0.20;0.20;;;;;;;6.97;100.00;101342.69;5032718;28;20510;-50
2021/12/13 01:11:36;;;;;;;0.20;0.20;;;;;;;6.85;100.00;101343.53;5035464;28;20451;-50
2021/12/13 01:14:42;;;;;;;0.20;0.20;;;;;;;6.80;100.00;101345.28;5034852;28;20486;-49
2021/12/13 01:17:43;;;;;;;0.30;0.30;;;;;;;6.77;100.00;101355.84;4991254;28;20486;-50
2021/12/13 01:20:33;;;;;;;0.20;0.20;;;;;;;6.86;100.00;101355.00;5038286;28;20443;-50
2021/12/13 01:23:08;;;;;;;0.20;0.20;;;;;;;6.87;100.00;101357.66;5042754;28;20470;-51
2021/12/13 01:28:34;;;;;;;0.20;0.20;;;;;;;6.96;100.00;101359.41;5035162;28;20482;-50
2021/12/13 01:31:17;;;;;;;0.20;0.20;;;;;;;6.99;100.00;101364.72;5033758;28;20862;-50
2021/12/13 01:33:47;;;;;;;0.20;0.20;;;;;;;7.05;100.00;101367.41;5036747;28;20479;-50
2021/12/13 01:36:19;;;;;;;0.20;0.20;;;;;;;7.08;100.00;101364.75;5040619;28;20504;-50
2021/12/13 01:38:51;;;;;;;0.50;0.50;;;;;;;7.03;100.00;101374.44;5034620;28;20517;-50
2021/12/13 01:41:42;;;;;;;0.20;0.20;;;;;;;6.96;100.00;101370.00;5038672;28;20858;-50
2021/12/13 01:44:17;;;;;;;0.20;0.10;;;;;;;6.91;100.00;101375.28;5042407;28;20475;-50
2021/12/13 01:46:49;;;;;;;1.60;1.60;;;;;;;6.90;100.00;101372.63;5037207;28;20418;-50
2021/12/13 01:49:16;;;;;;;0.87;0.87;;;;;;;6.96;100.00;101368.22;5042658;28;20479;-50
2021/12/13 01:51:43;;;;;;;0.20;0.20;;;;;;;6.95;100.00;101381.44;5035258;28;20521;-50
2021/12/13 01:54:15;;;;;;;0.20;0.20;;;;;;;7.02;100.00;101389.41;5048002;28;20490;-50
2021/12/13 01:56:58;;;;;;;0.20;0.20;;;;;;;7.07;100.00;101394.72;5034392;28;20498;-50
2021/12/13 02:02:07;;;;;;;0.20;0.20;;;;;;;7.13;100.00;101394.75;5034361;28;20533;-50
2021/12/13 02:04:35;;;;;;;0.20;0.20;;;;;;;7.17;100.00;101391.22;5034292;28;20462;-50
2021/12/13 02:07:04;;;;;;;0.60;0.60;;;;;;;7.09;100.00;101383.25;5041373;28;20450;-50
2021/12/13 02:09:38;;;;;;;0.20;0.10;;;;;;;7.07;100.00;101387.66;5034209;28;20913;-50
2021/12/13 02:12:14;;;;;;;0.30;0.20;;;;;;;7.03;100.00;101385.91;5043436;28;20531;-50
2021/12/13 02:16:55;;;;;;;0.30;0.20;;;;;;;7.01;100.00;101386.78;5041829;28;20451;-50
2021/12/13 02:17:40;;;;;;;0.43;0.43;;;;;;;6.95;100.00;101386.72;5035975;28;20484;-50
2021/12/13 02:20:10;;;;;;;0.20;0.20;;;;;;;6.92;100.00;101392.91;5041077;28;20443;-50
2021/12/13 02:22:42;;;;;;;0.20;0.20;;;;;;;7.00;100.00;101380.59;5045274;28;20495;-50
2021/12/13 02:25:18;;;;;;;0.20;0.20;;;;;;;7.02;100.00;101391.19;5034543;28;20451;-51
2021/12/13 02:27:58;;;;;;;0.20;0.10;;;;;;;6.95;100.00;101378.81;5034696;28;20510;-50
2021/12/13 02:30:28;;;;;;;0.20;0.20;;;;;;;6.95;100.00;101384.97;5043413;28;20549;-50
2021/12/13 02:32:55;;;;;;;0.23;0.20;;;;;;;6.94;100.00;101379.69;5036289;28;20467;-50
2021/12/13 02:35:27;;;;;;;0.30;0.20;;;;;;;7.04;100.00;101394.72;5043843;28;20447;-50
2021/12/13 02:37:57;;;;;;;0.20;0.20;;;;;;;7.03;100.00;101403.53;5040173;28;20494;-50
2021/12/13 02:40:24;;;;;;;0.20;0.20;;;;;;;7.00;100.00;101404.41;5038018;28;20452;-49
2021/12/13 02:42:52;;;;;;;0.20;0.20;;;;;;;6.89;100.00;101395.53;5033210;28;20912;-50
2021/12/13 02:45:29;;;;;;;0.20;0.20;;;;;;;6.92;100.00;101394.66;5033764;28;20459;-50
2021/12/13 02:48:10;;;;;;;0.20;0.20;;;;;;;7.01;100.00;101392.06;5044789;28;20457;-50
2021/12/13 02:50:49;;;;;;;0.20;0.20;;;;;;;6.93;100.00;101394.66;5038698;28;21018;-50
2021/12/13 02:53:21;;;;;;;0.20;0.20;;;;;;;6.82;100.00;101397.25;5032115;28;20584;-50
2021/12/13 02:55:48;;;;;;;0.20;0.20;;;;;;;6.88;100.00;101395.53;5033475;28;20468;-50
2021/12/13 02:58:20;;;;;;;0.30;0.20;;;;;;;6.83;100.00;101391.09;5033075;28;20882;-50
2021/12/13 03:00:46;;;;;;;0.20;0.20;;;;;;;7.05;100.00;101396.47;5042359;28;20493;-49
2021/12/13 03:03:17;;;;;;;0.20;0.10;;;;;;;6.87;100.00;101386.72;5033982;28;20478;-50
2021/12/13 03:05:47;;;;;;;0.20;0.10;;;;;;;6.85;100.00;101380.50;5038128;28;20448;-50
2021/12/13 03:08:25;;;;;;;0.30;0.20;;;;;;;6.85;100.00;101369.94;5035141;28;20888;-50
2021/12/13 03:10:59;;;;;;;0.37;0.33;;;;;;;6.74;100.00;101372.56;5041045;28;20483;-50
2021/12/13 03:13:28;;;;;;;0.30;0.20;;;;;;;6.66;100.00;101370.75;5040605;28;20467;-50
2021/12/13 03:16:36;;;;;;;0.30;0.20;;;;;;;6.66;100.00;101376.91;5034815;28;20447;-50
2021/12/13 03:19:22;;;;;;;0.20;0.20;;;;;;;6.50;100.00;101383.00;4997928;28;20455;-49
2021/12/13 03:22:16;;;;;;;0.20;0.20;;;;;;;6.57;100.00;101387.44;5032784;28;20527;-50
2021/12/13 03:25:06;;;;;;;0.30;0.30;;;;;;;6.69;100.00;101376.03;5030593;28;20447;-50
2021/12/13 03:27:44;;;;;;;0.20;0.20;;;;;;;6.58;100.00;101369.81;5039694;28;20510;-50
2021/12/13 03:30:16;;;;;;;0.20;0.20;;;;;;;6.59;100.00;101369.84;5046062;28;20510;-50
2021/12/13 03:32:55;;;;;;;0.60;0.60;;;;;;;6.50;100.00;101383.00;5028083;28;21087;-50
2021/12/13 03:35:38;;;;;;;0.20;0.10;;;;;;;6.46;100.00;101382.13;5032880;28;20509;-50
2021/12/13 03:38:22;;;;;;;0.20;0.20;;;;;;;6.52;100.00;101373.31;5038264;28;20491;-50
2021/12/13 03:40:49;;;;;;;0.20;0.20;;;;;;;6.58;100.00;101376.00;5030109;28;20458;-49
2021/12/13 03:43:24;;;;;;;0.20;0.20;;;;;;;6.62;100.00;101383.06;5043698;28;20507;-49
2021/12/13 03:45:56;;;;;;;0.20;0.20;;;;;;;6.58;100.00;101388.31;5032350;28;20451;-49
2021/12/13 03:48:26;;;;;;;0.20;0.20;;;;;;;6.64;100.00;101386.59;5034650;28;20451;-49
2021/12/13 03:50:57;;;;;;;0.20;0.20;;;;;;;6.69;100.00;101390.13;5047633;28;20448;-49
2021/12/13 03:53:28;;;;;;;0.20;0.20;;;;;;;6.87;100.00;101389.38;5036375;28;20490;-49
2021/12/13 03:56:02;;;;;;;0.20;0.10;;;;;;;6.72;100.00;101384.91;5032267;28;20480;-50
2021/12/13 03:58:33;;;;;;;0.20;0.20;;;;;;;6.68;100.00;101385.72;5039503;28;20955;-49
2021/12/13 04:01:08;;;;;;;0.20;0.20;;;;;;;6.64;100.00;101385.72;5044231;28;20456;-49
2021/12/13 04:03:37;;;;;;;0.20;0.20;;;;;;;6.81;100.00;101387.56;5032191;28;20879;-49
2021/12/13 04:06:04;;;;;;;0.20;0.20;;;;;;;6.71;100.00;101388.38;5042228;28;20496;-49
2021/12/13 04:08:33;;;;;;;0.20;0.20;;;;;;;6.71;100.00;101382.22;5036662;28;21019;-49
2021/12/13 04:11:04;;;;;;;0.30;0.20;;;;;;;6.61;100.00;101385.72;5040859;28;20452;-49
2021/12/13 04:13:36;;;;;;;0.20;0.10;;;;;;;6.65;100.00;101388.38;5036895;28;20878;-49
2021/12/13 04:16:14;;;;;;;0.20;0.20;;;;;;;6.62;100.00;101387.47;5039124;28;20452;-49
2021/12/13 04:21:16;;;;;;;0.20;0.20;;;;;;;6.57;100.00;101387.44;5030893;28;20455;-49
2021/12/13 04:23:51;;;;;;;0.20;0.20;;;;;;;6.49;100.00;101384.75;5036282;28;20486;-49
2021/12/13 04:26:18;;;;;;;0.20;0.20;;;;;;;6.56;100.00;101388.31;5029309;28;20946;-49
2021/12/13 04:28:53;;;;;;;0.20;0.20;;;;;;;6.52;100.00;101391.81;5045869;28;20508;-49
2021/12/13 04:31:25;;;;;;;0.20;0.20;;;;;;;6.63;100.00;101387.47;5036394;28;20535;-49
2021/12/13 04:33:58;;;;;;;0.20;0.10;;;;;;;6.54;100.00;101387.41;5040684;28;20448;-49
2021/12/13 04:36:39;;;;;;;0.20;0.20;;;;;;;6.41;100.00;101398.78;5028646;28;20831;-50
2021/12/13 04:39:06;;;;;;;0.20;0.20;;;;;;;6.19;100.00;101389.84;5039434;28;20502;-49
2021/12/13 04:41:51;;;;;;;0.20;0.20;;;;;;;6.13;100.00;101393.31;5036537;28;20505;-49
2021/12/13 04:44:29;;;;;;;0.20;0.20;;;;;;;6.03;100.00;101396.78;5050544;28;20455;-49
2021/12/13 04:46:57;;;;;;;0.20;0.20;;;;;;;5.84;100.00;101394.81;5039749;28;20458;-49
2021/12/13 04:49:26;;;;;;;0.20;0.20;;;;;;;5.74;100.00;101398.22;5043494;28;20537;-50
2021/12/13 04:51:55;;;;;;;0.20;0.20;;;;;;;5.53;100.00;101405.09;5035961;28;20511;-49
2021/12/13 04:54:23;;;;;;;0.20;0.20;;;;;;;5.47;100.00;101409.41;5047626;28;20507;-49
2021/12/13 04:56:53;;;;;;;0.20;0.10;;;;;;;5.45;100.00;101404.13;5035986;28;20475;-49
2021/12/13 04:59:20;;;;;;;0.20;0.20;;;;;;;5.30;100.00;101398.69;5046735;28;20450;-49
2021/12/13 05:01:53;;;;;;;0.20;0.10;;;;;;;5.34;100.00;101397.84;5041894;28;20475;-49
2021/12/13 05:04:22;;;;;;;0.20;0.20;;;;;;;5.31;100.00;101400.44;5043561;28;20451;-49
2021/12/13 05:06:51;;;;;;;0.20;0.20;;;;;;;5.15;100.00;101415.22;5043144;28;20448;-49
2021/12/13 05:09:20;;;;;;;0.20;0.20;;;;;;;5.10;100.00;101410.78;5039807;28;20480;-49
2021/12/13 05:11:56;;;;;;;0.20;0.10;;;;;;;5.02;100.00;101408.03;5036316;28;20529;-49
2021/12/13 05:14:34;;;;;;;0.20;0.20;;;;;;;4.68;100.00;101412.00;5036031;28;20447;-49
2021/12/13 05:17:09;;;;;;;0.20;0.10;;;;;;;4.83;100.00;101417.47;5036461;28;20443;-49
2021/12/13 05:19:43;;;;;;;0.20;0.10;;;;;;;5.01;100.00;101422.06;5036215;28;20443;-48
2021/12/13 05:22:12;;;;;;;0.20;0.20;;;;;;;4.96;100.00;101435.19;5035679;28;20476;-49
2021/12/13 05:24:47;;;;;;;0.20;0.10;;;;;;;4.73;100.00;101429.63;5036281;28;20455;-49
2021/12/13 05:27:42;;;;;;;0.20;0.20;;;;;;;4.70;100.00;101431.34;5035875;28;20443;-49
2021/12/13 05:30:08;;;;;;;0.20;0.10;;;;;;;4.84;100.00;101434.16;5047366;28;20964;-49
2021/12/13 05:32:41;;;;;;;0.20;0.17;;;;;;;4.81;100.00;101429.72;5036036;28;20467;-49
2021/12/13 05:35:19;;;;;;;0.30;0.20;;;;;;;4.80;100.00;101435.88;5035691;28;20474;-49
2021/12/13 05:37:50;;;;;;;0.20;0.20;;;;;;;4.82;100.00;101439.41;5035715;28;20454;-49
2021/12/13 05:40:22;;;;;;;0.20;0.10;;;;;;;4.81;100.00;101442.03;5035549;28;21011;-49
2021/12/13 05:43:00;;;;;;;0.20;0.20;;;;;;;4.88;100.00;101447.38;5035394;28;20541;-49
2021/12/13 05:45:35;;;;;;;0.20;0.10;;;;;;;4.93;100.00;101443.03;5035518;28;20451;-49
2021/12/13 05:48:11;;;;;;;0.20;0.20;;;;;;;5.00;100.00;101444.91;5035175;28;21002;-50
2021/12/13 05:50:50;;;;;;;0.20;0.10;;;;;;;5.06;100.00;101438.81;5035598;28;20536;-49
2021/12/13 05:53:24;;;;;;;0.20;0.13;;;;;;;5.13;100.00;101442.41;5035445;28;20475;-49
2021/12/13 05:56:03;;;;;;;0.20;0.10;;;;;;;5.17;100.00;101434.56;5035416;28;20493;-49
2021/12/13 05:58:40;;;;;;;0.20;0.10;;;;;;;5.19;100.00;101438.09;5022510;28;20447;-49
2021/12/13 06:01:29;;;;;;;0.20;0.10;;;;;;;5.31;100.00;101432.97;5035403;28;20451;-57
2021/12/13 06:04:16;;;;;;;0.20;0.10;;;;;;;5.34;100.00;101432.09;5035006;28;20454;-49
2021/12/13 06:06:45;;;;;;;0.20;0.10;;;;;;;5.47;100.00;101433.13;5034870;28;20498;-49
2021/12/13 06:09:44;;;;;;;0.20;0.20;;;;;;;5.48;100.00;101438.44;5035139;28;20501;-50
2021/12/13 06:12:34;;;;;;;0.20;0.10;;;;;;;5.57;100.00;101437.63;5034819;28;20495;-51
2021/12/13 06:15:32;;;;;;;0.20;0.20;;;;;;;5.37;100.00;101426.00;5034558;28;20444;-50
2021/12/13 06:18:04;;;;;;;0.20;0.20;;;;;;;5.59;100.00;101435.91;5033155;28;20495;-50
2021/12/13 06:20:40;;;;;;;0.20;0.20;;;;;;;5.78;100.00;101442.25;5034571;28;20448;-50
2021/12/13 06:23:14;;;;;;;1.90;1.80;;;;;;;5.80;100.00;101440.50;5034535;28;21038;-50
2021/12/13 06:25:45;;;;;;;0.20;0.20;;;;;;;5.82;100.00;101444.94;5034393;28;20497;-49
2021/12/13 06:28:36;;;;;;;0.20;0.10;;;;;;;5.81;100.00;101445.81;5034404;28;20497;-50
2021/12/13 06:31:18;;;;;;;0.20;0.10;;;;;;;5.93;100.00;101451.22;5024133;28;20905;-50
2021/12/13 06:33:53;;;;;;;0.20;0.10;;;;;;;5.92;100.00;101445.94;5034524;28;20462;-51
2021/12/13 06:36:34;;;;;;;0.20;0.10;;;;;;;5.96;100.00;101447.72;5034387;28;20943;-50
2021/12/13 06:39:06;;;;;;;0.20;0.10;;;;;;;5.92;100.00;101456.50;5034180;28;20448;-50
2021/12/13 06:41:38;;;;;;;0.20;0.20;;;;;;;5.91;100.00;101463.53;5033920;28;20814;-50
2021/12/13 06:44:10;;;;;;;0.20;0.20;;;;;;;5.89;100.00;101452.03;5034341;28;20451;-50
2021/12/13 06:47:02;;;;;;;0.20;0.20;;;;;;;6.02;100.00;101463.59;5033905;28;20517;-50
2021/12/13 06:50:05;;;;;;;0.30;0.20;;;;;;;5.97;100.00;101449.50;5029227;28;20455;-50
2021/12/13 06:52:32;;;;;;;0.20;0.20;;;;;;;6.03;100.00;101459.22;5003826;28;20518;-50
2021/12/13 06:55:20;;;;;;;0.20;0.10;;;;;;;6.11;100.00;101452.25;5029823;28;20793;-49
2021/12/13 06:57:57;;;;;;;0.30;0.30;;;;;;;6.15;100.00;101456.69;5033710;28;20930;-50
2021/12/13 07:00:32;;;;;;;0.20;0.10;;;;;;;6.15;100.00;101452.28;5034430;28;20450;-51
2021/12/13 07:03:00;;;;;;;0.20;0.20;;;;;;;6.19;100.00;101454.09;5033599;28;20900;-50
2021/12/13 07:05:35;;;;;;;0.20;0.20;;;;;;;6.31;100.00;101450.66;5034010;28;20458;-51
2021/12/13 07:08:15;;;;;;;0.20;0.20;;;;;;;6.34;100.00;101450.69;5033576;28;20443;-50
2021/12/13 07:10:56;;;;;;;0.20;0.10;;;;;;;6.36;100.00;101455.97;5033420;28;20996;-50
2021/12/13 07:14:13;;;;;;;0.30;0.30;;;;;;;6.40;100.00;101455.13;5033459;28;20467;-50
2021/12/13 07:16:50;;;;;;;0.20;0.20;;;;;;;6.53;100.00;101452.56;5022500;28;20472;-50
2021/12/13 07:19:23;;;;;;;0.20;0.10;;;;;;;6.62;100.00;101445.59;5033385;28;20475;-50
2021/12/13 07:22:04;;;;;;;0.20;0.20;;;;;;;6.55;100.00;101449.94;5033237;28;20467;-50
2021/12/13 07:24:44;;;;;;;0.30;0.20;;;;;;;6.59;100.00;101450.88;5033286;28;20972;-50
2021/12/13 07:27:14;;;;;;;0.30;0.20;;;;;;;6.65;100.00;101448.25;5033196;28;20483;-50
2021/12/13 07:29:52;;;;;;;11.93;2.00;;;;;;;6.65;100.00;101462.34;5044201;28;20540;-50
2021/12/13 07:32:19;;;;;;;0.20;0.10;;;;;;;6.72;100.00;101458.00;5033504;28;20513;-50
2021/12/13 07:35:06;;;;;;;0.20;0.10;;;;;;;6.72;100.00;101452.72;5033279;28;20888;-50
2021/12/13 07:37:54;;;;;;;0.20;0.10;;;;;;;6.72;100.00;101463.28;5023177;28;20455;-50
2021/12/13 07:40:41;;;;;;;0.20;0.20;;;;;;;6.73;100.00;101479.13;5032952;28;20505;-49
2021/12/13 07:43:14;;;;;;;0.20;0.20;;;;;;;6.80;100.00;101469.47;5032840;28;20475;-50
2021/12/13 07:45:40;;;;;;;0.20;0.20;;;;;;;6.78;100.00;101469.47;5033036;28;20501;-50
2021/12/13 07:48:15;;;;;;;0.20;0.20;;;;;;;6.87;100.00;101468.66;5032898;28;20452;-50
2021/12/13 07:50:45;;;;;;;0.20;0.20;;;;;;;6.90;100.00;101473.06;5032908;28;20526;-50
2021/12/13 07:53:16;;;;;;;1.53;1.23;;;;;;;6.85;100.00;101478.28;5032641;28;20529;-51
2021/12/13 07:55:47;;;;;;;0.20;0.10;;;;;;;6.87;100.00;101467.75;5033043;28;20478;-50
2021/12/13 07:58:33;;;;;;;0.20;0.20;;;;;;;6.92;100.00;101484.50;5032860;28;20478;-50
2021/12/13 08:01:10;;;;;;;0.20;0.20;;;;;;;6.86;100.00;101479.22;5032646;28;20489;-50
2021/12/13 08:03:48;;;;;;;1.13;1.13;;;;;;;6.89;100.00;101485.38;5032482;28;20467;-50
2021/12/13 08:06:15;;;;;;;0.20;0.20;;;;;;;6.93;100.00;101487.16;5032701;28;20448;-50
2021/12/13 08:08:57;;;;;;;0.30;0.20;;;;;;;6.96;100.00;101484.53;5032497;28;21007;-50
2021/12/13 08:11:42;;;;;;;0.73;0.73;;;;;;;7.00;100.00;101485.47;5032417;28;20523;-50
2021/12/13 08:14:09;;;;;;;0.20;0.20;;;;;;;7.00;100.00;101488.97;5032229;28;20494;-50
2021/12/13 08:16:41;;;;;;;0.20;0.17;;;;;;;7.08;100.00;101489.00;5032263;28;20478;-50
2021/12/13 08:19:23;;;;;;;0.20;0.20;;;;;;;7.04;100.00;101497.81;5032454;28;20494;-50
2021/12/13 08:21:57;;;;;;;0.20;0.20;;;;;;;7.04;100.00;101495.16;5032396;28;20888;-50
2021/12/13 08:24:34;;;;;;;0.20;0.20;;;;;;;7.10;100.00;101490.78;5032576;28;20458;-50
2021/12/13 08:27:09;;;;;;;0.20;0.10;;;;;;;7.07;100.00;101495.16;5032396;28;20443;-50
2021/12/13 08:29:39;;;;;;;0.20;0.20;;;;;;;7.09;100.00;101496.06;5042701;28;20497;-50
2021/12/13 08:32:18;;;;;;;0.20;0.20;;;;;;;7.16;100.00;101504.91;5034496;28;20471;-50
2021/12/13 08:34:57;;;;;;;0.20;0.20;;;;;;;7.20;100.00;101499.63;5032174;28;20483;-50
2021/12/13 08:37:29;;;;;;;0.20;0.20;;;;;;;7.25;100.00;101503.19;5021041;28;20486;-50
2021/12/13 08:40:18;;;;;;;0.20;0.20;;;;;;;7.30;100.00;101505.88;5032446;28;20824;-50
2021/12/13 08:42:48;;;;;;;0.20;0.20;;;;;;;7.28;100.00;101513.78;5032398;28;20521;-50
2021/12/13 08:45:27;;;;;;;0.20;0.10;;;;;;;7.39;100.00;101512.06;5032119;28;20475;-50
2021/12/13 08:48:20;;;;;;;0.20;0.20;;;;;;;7.34;100.00;101508.53;5032116;28;20447;-51
2021/12/13 08:50:51;;;;;;;0.30;0.20;;;;;;;7.41;100.00;101515.63;5030968;28;21035;-50
2021/12/13 08:53:33;;;;;;;0.20;0.20;;;;;;;7.47;100.00;101519.16;5031832;28;20467;-50
2021/12/13 08:56:09;;;;;;;0.20;0.20;;;;;;;7.49;100.00;101518.28;5032199;28;20876;-51
2021/12/13 08:58:36;;;;;;;0.20;0.20;;;;;;;7.51;100.00;101518.28;5032206;28;20478;-50
2021/12/13 09:01:09;;;;;;;0.20;0.20;;;;;;;7.51;100.00;101515.63;5031892;28;20482;-50
2021/12/13 09:03:41;;;;;;;0.30;0.30;;;;;;;7.52;100.00;101523.56;5031984;28;21008;-50
2021/12/13 09:06:17;;;;;;;0.30;0.20;;;;;;;7.53;100.00;101525.34;5031876;28;21015;-50
2021/12/13 09:08:49;;;;;;;0.20;0.20;;;;;;;7.60;100.00;101523.63;5031982;28;20443;-50
2021/12/13 09:11:26;;;;;;;0.30;0.20;;;;;;;7.59;100.00;101521.84;5031836;28;20491;-50
2021/12/13 09:14:15;;;;;;;0.20;0.20;;;;;;;7.62;100.00;101525.38;5031909;28;20451;-50
2021/12/13 09:17:16;;;;;;;0.53;0.50;;;;;;;7.72;100.00;101528.94;5031889;28;20497;-50
2021/12/13 09:19:50;;;;;;;0.30;0.20;;;;;;;7.75;100.00;101536.88;5032087;28;20459;-51
2021/12/13 09:22:32;;;;;;;0.83;0.83;;;;;;;7.82;100.00;101535.16;5031887;28;20472;-50
2021/12/13 09:25:11;;;;;;;0.30;0.20;;;;;;;7.88;100.00;101528.09;5032018;28;20483;-50
2021/12/13 09:27:41;;;;;;;0.30;0.20;;;;;;;7.86;100.00;101519.28;5035184;28;20470;-50
2021/12/13 09:30:13;;;;;;;0.30;0.20;;;;;;;7.96;100.00;101523.72;5048809;28;20450;-51
2021/12/13 09:32:48;;;;;;;0.23;0.20;;;;;;;7.96;100.00;101522.84;5035457;28;20530;-50
2021/12/13 09:35:18;;;;;;;0.30;0.20;;;;;;;8.03;100.00;101528.13;5035388;28;20451;-50
2021/12/13 09:37:45;;;;;;;0.40;0.40;;;;;;;8.10;100.00;101528.16;5035558;28;20593;-50
2021/12/13 09:40:16;;;;;;;0.30;0.20;;;;;;;8.14;100.00;101529.94;5035333;28;20860;-50
2021/12/13 09:42:49;;;;;;;0.30;0.20;;;;;;;8.16;100.00;101530.81;5035251;28;20514;-50
2021/12/13 09:45:27;;;;;;;0.30;0.10;;;;;;;8.23;100.00;101533.47;5035193;28;21008;-50
2021/12/13 09:47:54;;;;;;;0.30;0.20;;;;;;;8.28;100.00;101537.00;5035353;28;20467;-50
2021/12/13 09:50:25;;;;;;;0.30;0.20;;;;;;;8.35;100.00;101531.72;5035061;28;20527;-50
2021/12/13 09:53:15;;;;;;;1.23;0.43;;;;;;;8.38;100.00;101535.28;5035018;28;20490;-50
2021/12/13 09:55:48;;;;;;;1.23;1.13;;;;;;;8.66;100.00;101533.50;5035127;28;20448;-51
2021/12/13 09:58:19;;;;;;;0.30;0.20;;;;;;;8.52;100.00;101535.28;5035106;28;20478;-50
2021/12/13 10:00:55;;;;;;;0.30;0.20;;;;;;;8.84;100.00;101535.25;5035164;28;20440;-51
2021/12/13 10:03:43;;;;;;;0.30;0.20;;;;;;;8.88;100.00;101537.00;5034971;28;20471;-50
2021/12/13 10:06:11;;;;;;;0.30;0.20;;;;;;;9.03;100.00;101536.09;5034816;28;20497;-50
2021/12/13 10:08:44;;;;;;;0.30;0.20;;;;;;;8.80;100.00;101523.78;5034705;28;20455;-51
2021/12/13 10:11:18;;;;;;;0.30;0.20;;;;;;;8.94;100.00;101525.53;5034455;28;20495;-50
2021/12/13 10:13:45;;;;;;;0.30;0.20;;;;;;;8.88;100.00;101527.28;5035047;28;20510;-50
2021/12/13 10:16:18;;;;;;;0.70;0.67;;;;;;;8.95;100.00;101525.53;5034758;28;20475;-50
2021/12/13 10:18:48;;;;;;;0.30;0.20;;;;;;;9.01;100.00;101519.31;5034449;28;20937;-50
2021/12/13 10:21:23;;;;;;;0.30;0.20;;;;;;;9.10;100.00;101520.16;5034498;28;20447;-50
2021/12/13 10:23:54;;;;;;;0.30;0.20;;;;;;;9.02;100.00;101524.59;5033218;28;20813;-50
2021/12/13 10:26:27;;;;;;;0.30;0.20;;;;;;;8.84;100.00;101525.53;5034524;28;20443;-50
2021/12/13 10:28:56;;;;;;;0.30;0.20;;;;;;;9.02;100.00;101527.25;5039077;28;20561;-50
2021/12/13 10:31:32;;;;;;;0.30;0.20;;;;;;;8.85;100.00;101524.63;5042514;28;20497;-50
2021/12/13 10:34:02;;;;;;;0.30;0.20;;;;;;;8.87;100.00;101528.16;5034480;28;20492;-51
2021/12/13 10:36:31;;;;;;;0.30;0.20;;;;;;;8.79;100.00;101511.41;5034413;28;20558;-51
2021/12/13 10:39:04;;;;;;;2.57;1.23;;;;;;;8.82;100.00;101518.47;5020690;28;20824;-50
2021/12/13 10:41:54;;;;;;;0.30;0.20;;;;;;;9.08;100.00;101523.72;5034000;28;20562;-50
2021/12/13 10:44:29;;;;;;;0.30;0.20;;;;;;;8.83;100.00;101528.19;5034318;28;20451;-50
2021/12/13 10:47:08;;;;;;;0.30;0.20;;;;;;;9.15;100.00;101512.19;5033969;28;21014;-50
2021/12/13 10:49:38;;;;;;;0.30;0.20;;;;;;;9.01;100.00;101508.69;5033876;28;20995;-50
2021/12/13 10:52:11;;;;;;;0.30;0.20;;;;;;;8.91;100.00;101507.84;5033740;28;20530;-51
2021/12/13 10:54:43;;;;;;;0.87;0.87;;;;;;;8.81;100.00;101508.75;5034041;28;20464;-50
2021/12/13 10:57:18;;;;;;;0.30;0.20;;;;;;;8.81;100.00;101504.34;5033903;28;20455;-50
2021/12/13 10:59:47;;;;;;;0.30;0.20;;;;;;;8.84;100.00;101503.44;5033904;28;20447;-50
2021/12/13 11:02:19;;;;;;;2.43;2.33;;;;;;;8.89;100.00;101507.84;5033430;28;20558;-50
2021/12/13 11:04:54;;;;;;;0.30;0.20;;;;;;;8.97;100.00;101505.19;5033703;28;20447;-50
2021/12/13 11:07:22;;;;;;;1.47;0.50;;;;;;;9.12;100.00;101499.81;5033704;28;20451;-50
2021/12/13 11:09:50;;;;;;;0.30;0.20;;;;;;;9.05;100.00;101492.78;5033604;28;20832;-51
2021/12/13 11:12:35;;;;;;;0.40;0.40;;;;;;;9.05;100.00;101491.91;5033317;28;20531;-50
2021/12/13 11:15:08;;;;;;;0.30;0.20;;;;;;;9.05;100.00;101491.91;5033589;28;20470;-50
2021/12/13 11:17:36;;;;;;;0.30;0.20;;;;;;;8.82;100.00;101487.53;5033316;28;20934;-50
2021/12/13 11:20:19;;;;;;;0.30;0.20;;;;;;;8.90;100.00;101480.44;5033449;28;20455;-50
2021/12/13 11:22:47;;;;;;;0.30;0.20;;;;;;;9.04;100.00;101488.34;5033310;28;20518;-50
2021/12/13 11:25:21;;;;;;;0.30;0.20;;;;;;;9.06;100.00;101483.06;5033185;28;21004;-51
2021/12/13 11:27:48;;;;;;;0.30;0.20;;;;;;;9.18;100.00;101486.56;5033183;28;20456;-50
2021/12/13 11:30:22;;;;;;;0.87;0.73;;;;;;;9.20;100.00;101484.78;5046636;28;20486;-50
2021/12/13 11:33:22;;;;;;;0.30;0.20;;;;;;;9.09;100.00;101480.41;5033759;28;20464;-50
2021/12/13 11:36:07;;;;;;;0.30;0.20;;;;;;;9.03;100.00;101483.06;5033118;28;20484;-50
2021/12/13 11:39:01;;;;;;;0.40;0.33;;;;;;;9.36;100.00;101479.41;5033338;28;20460;-51
2021/12/13 11:41:40;;;;;;;1.20;1.20;;;;;;;9.30;100.00;101480.28;5033064;28;20464;-50
2021/12/13 11:44:21;;;;;;;1.27;1.27;;;;;;;9.19;100.00;101476.84;5033156;28;20454;-50
2021/12/13 11:46:59;;;;;;;0.30;0.20;;;;;;;9.34;100.00;101482.06;5033127;28;20444;-49
2021/12/13 11:49:48;;;;;;;0.30;0.20;;;;;;;9.44;100.00;101480.22;5033398;28;20452;-50
2021/12/13 11:52:14;;;;;;;0.30;0.20;;;;;;;9.44;100.00;101486.44;5023261;28;20519;-50
2021/12/13 11:55:16;;;;;;;0.30;0.30;;;;;;;9.46;100.00;101478.47;5032621;28;20456;-50
2021/12/13 11:57:49;;;;;;;0.30;0.20;;;;;;;9.57;100.00;101483.72;5032796;28;20489;-50
2021/12/13 12:00:35;;;;;;;0.30;0.20;;;;;;;9.59;100.00;101474.84;5032788;28;20451;-50
2021/12/13 12:03:23;;;;;;;0.30;0.20;;;;;;;9.63;100.00;101476.63;5032509;28;20468;-49
2021/12/13 12:06:28;;;;;;;0.30;0.20;;;;;;;9.58;100.00;101483.69;5032596;28;20444;-50
2021/12/13 12:09:22;;;;;;;0.30;0.20;;;;;;;9.69;100.00;101471.25;5032824;28;20456;-50
2021/12/13 12:12:13;;;;;;;0.30;0.20;;;;;;;9.76;100.00;101469.47;5023450;28;20527;-50
2021/12/13 12:14:39;;;;;;;0.30;0.20;;;;;;;9.72;100.00;101470.34;5032811;28;20854;-49